Latest Weather Observations for Mount Buller

IDV60801

Issued at 12:42 pm EDT Wednesday 21 November 2018 (issued every 10 minutes, with the page automatically refreshed every 10 minutes)

About weather observations | Map of weather stations | Latest weather observations for VIC | Other Formats
Station Details ID: 083024 Name: MOUNT BULLER Lat: -37.15 Lon: 146.44 Height: 1707.0 m
Data from the previous 72 hours. | See also: Recent months at Mount Buller
Date/Time
EDT
Temp
°C
App
Temp
°C
Dew
Point
°C
Rel
Hum
%
Delta-T
°C
Wind Press
QNH
hPa
Press
MSL
hPa
Rain since
9am
mm
Dir  Spd
km/h
Gust
km/h
Spd
kts
Gust
kts
21/12:30pm 8.4 2.7 8.3 99 0.1 N 28 41 15 22 - - 0.0
21/12:10pm 7.1 0.7 7.0 99 0.1 N 30 52 16 28 - - 0.0
21/12:00pm 7.2 1.6 7.1 99 0.1 N 26 43 14 23 - - 0.0
21/11:30am 8.7 2.7 8.6 99 0.1 N 30 39 16 21 - - 0.0
21/11:00am 7.2 1.2 7.1 99 0.1 N 28 41 15 22 - - 0.0
21/10:38am 7.4 1.5 7.3 99 0.1 N 28 46 15 25 - - 0.0
21/10:30am 8.6 2.2 8.5 99 0.1 N 32 46 17 25 - - 0.0
21/10:00am 7.4 1.1 7.3 99 0.1 N 30 39 16 21 - - 0.0
21/09:30am 7.3 0.6 7.2 99 0.1 N 32 46 17 25 - - 0.0
21/09:00am 7.5 0.6 7.4 99 0.1 NNW 33 46 18 25 - - 26.8
21/08:30am 7.5 1.6 7.4 99 0.1 NNW 28 37 15 20 - - 26.8
21/08:00am 7.5 1.2 7.4 99 0.1 NNW 30 39 16 21 - - 26.8
21/07:30am 7.4 2.2 7.3 99 0.1 NNW 24 35 13 19 - - 26.8
21/07:00am 7.5 3.1 7.4 99 0.1 N 20 37 11 20 - - 26.6
21/06:30am 7.8 3.7 7.7 99 0.1 NNW 19 32 10 17 - - 26.6
21/06:00am 7.8 4.0 7.7 99 0.1 NW 17 30 9 16 - - 26.2
21/05:30am 8.1 4.0 8.0 99 0.1 NNW 19 37 10 20 - - 25.2
21/05:05am 8.3 2.6 8.2 99 0.1 NW 28 52 15 28 - - 25.2
21/05:00am 8.2 3.6 8.1 99 0.1 NW 22 52 12 28 - - 25.2
21/04:30am 9.2 6.5 9.1 99 0.1 NW 13 43 7 23 - - 23.0
21/04:21am 9.4 6.0 9.3 99 0.1 NW 17 63 9 34 - - 22.0
21/04:01am 9.5 0.3 9.4 99 0.1 NNW 48 67 26 36 - - 20.6
21/04:00am 9.6 0.0 9.5 99 0.1 NNW 50 67 27 36 - - 20.4
21/03:41am 9.6 1.3 9.5 99 0.1 N 43 61 23 33 - - 15.4
21/03:30am 9.5 0.7 9.4 99 0.1 N 46 72 25 39 - - 12.4
21/03:29am 9.5 0.3 9.4 99 0.1 N 48 72 26 39 - - 12.2
21/03:00am 9.5 -2.2 9.4 99 0.1 N 61 85 33 46 - - 11.6
21/02:30am 9.6 -0.7 9.5 99 0.1 N 54 80 29 43 - - 11.6
21/02:00am 9.6 1.3 9.5 99 0.1 N 43 65 23 35 - - 11.6
21/01:30am 9.6 1.3 9.5 99 0.1 NNE 43 63 23 34 - - 11.6
21/01:00am 9.9 1.7 9.8 99 0.1 NNE 43 61 23 33 - - 11.6
21/12:30am 10.3 1.9 9.7 96 0.3 NNE 44 63 24 34 - - 11.6
21/12:00am 10.6 0.9 9.2 91 0.8 N 50 74 27 40 - - 11.6
 
Date/Time
EDT
Temp
°C
App
Temp
°C
Dew
Point
°C
Rel
Hum
%
Delta-T
°C
Wind Press
QNH
hPa
Press
MSL
hPa
Rain since
9am
mm
Dir  Spd
km/h
Gust
km/h
Spd
kts
Gust
kts
20/11:30pm 10.7 1.0 9.1 90 0.9 N 50 69 27 37 - - 11.6
20/11:00pm 10.7 3.7 8.6 87 1.1 N 35 63 19 34 - - 11.4
20/10:30pm 11.1 5.0 8.3 83 1.5 N 30 50 16 27 - - 11.4
20/10:27pm 10.6 4.9 8.4 86 1.2 N 28 50 15 27 - - 11.4
20/10:00pm 10.3 5.4 8.6 89 0.9 N 24 39 13 21 - - 11.4
20/09:30pm 10.1 4.8 8.4 89 0.9 NNE 26 37 14 20 - - 11.4
20/09:21pm 10.2 3.7 8.3 88 1.0 NNE 32 50 17 27 - - 11.4
20/09:00pm 10.7 3.9 7.8 82 1.5 NNE 33 50 18 27 - - 11.4
20/08:32pm 10.6 4.1 8.0 84 1.4 N 32 50 17 27 - - 11.4
20/08:30pm 10.7 4.1 7.9 83 1.5 NNE 32 44 17 24 - - 11.4
20/08:00pm 10.2 5.1 9.1 93 0.6 N 26 37 14 20 - - 11.4
20/07:30pm 9.7 5.5 9.6 99 0.1 NNE 22 35 12 19 - - 11.4
20/07:00pm 9.3 5.3 9.2 99 0.1 NNE 20 32 11 17 - - 11.2
20/06:30pm 9.0 3.4 8.9 99 0.1 NNE 28 37 15 20 - - 11.2
20/06:01pm 9.1 2.6 9.0 99 0.1 NNW 33 54 18 29 - - 10.0
20/06:00pm 9.1 2.8 9.0 99 0.1 NW 32 52 17 28 - - 9.8
20/05:30pm 10.2 6.4 9.7 97 0.3 N 20 80 11 43 - - 2.8
20/05:00pm 12.0 7.4 9.7 86 1.3 NNE 24 35 13 19 - - 0.0
20/04:30pm 13.1 8.2 9.9 81 1.8 NE 26 39 14 21 - - 0.0
20/04:00pm 13.5 8.6 9.9 79 2.0 NE 26 35 14 19 - - 0.0
20/03:30pm 14.2 10.1 10.2 77 2.3 NE 22 35 12 19 - - 0.0
20/03:00pm 14.8 10.7 10.0 73 2.7 NNE 22 35 12 19 - - 0.0
20/02:30pm 14.7 10.5 9.7 72 2.8 NNE 22 33 12 18 - - 0.0
20/02:00pm 14.7 10.5 9.7 72 2.8 NNE 22 33 12 18 - - 0.0
20/01:30pm 14.8 9.8 9.4 70 3.0 N 26 35 14 19 - - 0.0
20/01:00pm 13.8 9.5 9.5 75 2.4 N 22 35 12 19 - - 0.0
20/12:30pm 13.4 8.2 8.9 74 2.5 N 26 37 14 20 - - 0.0
20/12:00pm 13.4 9.2 9.8 79 2.0 N 22 35 12 19 - - 0.0
20/11:32am 12.7 6.3 8.4 75 2.3 NNE 32 50 17 27 - - 0.0
20/11:30am 12.3 6.0 9.1 81 1.8 NNE 32 44 17 24 - - 0.0
20/11:00am 11.6 6.5 9.2 85 1.3 N 26 33 14 18 - - 0.0
20/10:43am 11.6 6.0 8.8 83 1.5 NNE 28 46 15 25 - - 0.0
20/10:30am 11.6 5.4 9.2 85 1.3 N 32 48 17 26 - - 0.0
20/10:21am 11.7 5.7 8.7 82 1.6 N 30 48 16 26 - - 0.0
20/10:00am 12.8 7.8 9.4 80 1.9 N 26 33 14 18 - - 0.0
20/09:30am 12.0 7.7 9.4 84 1.4 N 22 32 12 17 - - 0.0
20/09:00am 10.8 6.5 8.0 83 1.5 N 20 33 11 18 - - 0.0
20/08:30am 10.8 6.0 7.3 79 1.8 N 22 32 12 17 - - 0.0
20/08:00am 11.3 6.4 7.0 75 2.3 NNE 22 30 12 16 - - 0.0
20/07:30am 11.1 6.2 5.0 66 3.1 N 20 28 11 15 - - 0.0
20/07:00am 10.8 5.3 3.8 62 3.4 NNE 22 30 12 16 - - 0.0
20/06:30am 10.6 4.3 3.9 63 3.3 N 26 39 14 21 - - 0.0
20/06:00am 10.6 4.6 3.4 61 3.5 N 24 37 13 20 - - 0.0
20/05:30am 10.6 5.0 3.4 61 3.5 N 22 32 12 17 - - 0.0
20/05:00am 10.8 5.2 3.6 61 3.5 N 22 33 12 18 - - 0.0
20/04:30am 11.1 4.7 3.4 59 3.7 N 26 37 14 20 - - 0.0
20/04:00am 11.3 5.0 3.6 59 3.8 N 26 33 14 18 - - 0.0
20/03:30am 11.4 5.2 4.2 61 3.6 N 26 35 14 19 - - 0.0
20/03:00am 11.3 5.0 3.6 59 3.8 N 26 35 14 19 - - 0.0
20/02:30am 11.4 5.1 3.9 60 3.7 N 26 33 14 18 - - 0.0
20/02:00am 11.3 4.9 3.3 58 3.9 NNE 26 32 14 17 - - 0.0
20/01:30am 11.0 5.0 3.3 59 3.7 NNE 24 30 13 16 - - 0.0
20/01:00am 10.8 4.8 3.4 60 3.6 NNE 24 30 13 16 - - 0.0
20/12:30am 11.3 5.7 3.6 59 3.8 NNE 22 28 12 15 - - 0.0
20/12:00am 11.0 5.9 3.1 58 3.8 NNE 19 22 10 12 - - 0.0
 
Date/Time
EDT
Temp
°C
App
Temp
°C
Dew
Point
°C
Rel
Hum
%
Delta-T
°C
Wind Press
QNH
hPa
Press
MSL
hPa
Rain since
9am
mm
Dir  Spd
km/h
Gust
km/h
Spd
kts
Gust
kts
19/11:30pm 11.0 6.3 3.1 58 3.8 NNE 17 22 9 12 - - 0.0
19/11:00pm 10.7 6.8 3.3 60 3.6 NNE 13 15 7 8 - - 0.0
19/10:30pm 10.3 6.7 2.9 60 3.5 NNW 11 15 6 8 - - 0.0
19/10:00pm 11.0 7.3 2.6 56 4.0 NNW 11 13 6 7 - - 0.0
19/09:30pm 11.0 8.0 2.1 54 4.2 NNW 7 9 4 5 - - 0.0
19/09:00pm 10.5 7.3 3.3 61 3.5 NNE 9 11 5 6 - - 0.0
19/08:30pm 11.1 8.0 3.6 60 3.7 NNE 9 13 5 7 - - 0.0
19/08:00pm 10.8 7.7 3.4 60 3.6 N 9 17 5 9 - - 0.0
19/07:30pm 11.8 7.9 3.6 57 4.0 N 13 17 7 9 - - 0.0
19/07:00pm 12.2 8.7 3.7 56 4.2 N 11 17 6 9 - - 0.0
19/06:30pm 13.3 10.4 4.7 56 4.4 NNE 9 13 5 7 - - 0.0
19/06:00pm 13.7 10.8 4.6 54 4.6 N 9 17 5 9 - - 0.0
19/05:30pm 14.2 9.8 5.0 54 4.7 NE 17 22 9 12 - - 0.0
19/05:00pm 14.6 10.7 5.4 54 4.8 NNE 15 20 8 11 - - 0.0
19/04:30pm 14.0 10.3 4.3 52 4.9 N 13 22 7 12 - - 0.0
19/04:00pm 14.2 10.8 6.1 58 4.3 N 13 22 7 12 - - 0.0
19/03:30pm 14.5 10.3 5.6 55 4.6 NNW 17 24 9 13 - - 0.0
19/03:00pm 13.6 9.7 5.5 58 4.2 NNE 15 22 8 12 - - 0.0
19/02:30pm 13.2 9.1 6.1 62 3.7 NNE 17 22 9 12 - - 0.0
19/02:00pm 12.0 8.1 5.2 63 3.5 N 15 22 8 12 - - 0.0
19/01:30pm 12.6 9.0 4.8 59 4.0 NNE 13 20 7 11 - - 0.0
19/01:00pm 12.9 8.8 4.1 55 4.4 NNW 15 28 8 15 - - 0.0
19/12:30pm 13.0 8.8 5.7 61 3.8 NNE 17 30 9 16 - - 0.0
19/12:00pm 13.3 8.6 5.0 57 4.2 NNE 19 30 10 16 - - 0.0
19/11:30am 13.0 7.5 4.2 55 4.4 N 22 32 12 17 - - 0.0
19/11:00am 13.3 8.9 6.4 63 3.6 NNE 19 26 10 14 - - 0.0
19/10:30am 11.6 7.3 5.3 65 3.2 NNE 17 24 9 13 - - 0.0
19/10:00am 11.7 7.4 5.3 65 3.3 NNE 17 24 9 13 - - 0.0
19/09:30am 10.4 5.9 4.3 66 3.0 N 17 22 9 12 - - 0.0
19/09:00am 10.8 6.4 4.7 66 3.0 N 17 22 9 12 - - 0.0
19/08:30am 10.2 5.9 3.5 63 3.2 N 15 20 8 11 - - 0.0
19/08:00am 9.7 5.4 3.0 63 3.2 NNE 15 20 8 11 - - 0.0
19/07:30am 9.4 4.9 2.3 61 3.3 NNE 15 17 8 9 - - 0.0
19/07:00am 9.1 4.6 2.0 61 3.3 N 15 19 8 10 - - 0.0
19/06:30am 8.3 3.3 1.5 62 3.1 N 17 19 9 10 - - 0.0
19/06:00am 8.0 3.4 1.4 63 3.0 N 15 20 8 11 - - 0.0
19/05:30am 8.3 3.7 1.7 63 3.0 N 15 19 8 10 - - 0.0
19/05:00am 7.7 3.8 0.9 62 3.0 N 11 13 6 7 - - 0.0
19/04:30am 7.8 3.5 1.0 62 3.1 N 13 19 7 10 - - 0.0
19/04:00am 8.1 3.0 0.8 60 3.3 N 17 20 9 11 - - 0.0
19/03:30am 8.2 2.7 0.9 60 3.3 NNW 19 26 10 14 - - 0.0
19/03:00am 8.0 3.3 1.0 61 3.1 NNW 15 17 8 9 - - 0.0
19/02:30am 8.5 3.8 1.2 60 3.3 NNW 15 22 8 12 - - 0.0
19/02:00am 8.7 3.4 1.6 61 3.3 N 19 24 10 13 - - 0.0
19/01:30am 8.8 4.0 2.4 64 3.0 N 17 26 9 14 - - 0.0
19/01:00am 8.9 4.3 1.8 61 3.3 N 15 20 8 11 - - 0.0
19/12:30am 9.1 4.6 2.0 61 3.3 N 15 20 8 11 - - 0.0
19/12:00am 9.5 6.6 4.9 73 2.3 NNE 9 13 5 7 - - 0.0
 
Date/Time
EDT
Temp
°C
App
Temp
°C
Dew
Point
°C
Rel
Hum
%
Delta-T
°C
Wind Press
QNH
hPa
Press
MSL
hPa
Rain since
9am
mm
Dir  Spd
km/h
Gust
km/h
Spd
kts
Gust
kts
18/11:30pm 9.1 6.4 3.9 70 2.5 N 7 9 4 5 - - 0.0
18/11:00pm 9.3 6.1 3.3 66 2.9 N 9 9 5 5 - - 0.0
18/10:30pm 9.4 6.7 3.8 68 2.7 NNE 7 9 4 5 - - 0.0
18/10:00pm 9.7 7.0 3.7 66 2.9 NNE 7 11 4 6 - - 0.0
18/09:30pm 10.0 7.6 4.4 68 2.8 NE 6 9 3 5 - - 0.0
18/09:00pm 10.4 7.9 5.0 69 2.7 E 7 11 4 6 - - 0.0
18/08:30pm 10.7 7.8 4.4 65 3.1 NNE 9 15 5 8 - - 0.0
18/08:00pm 11.7 8.8 4.4 61 3.6 N 9 15 5 8 - - 0.0
18/07:30pm 12.3 9.3 4.0 57 4.1 N 9 17 5 9 - - 0.0
18/07:00pm 13.3 12.0 5.9 61 3.9 SW 2 7 1 4 - - 0.0
18/06:30pm 13.2 10.9 5.9 61 3.8 S 7 13 4 7 - - 0.0
18/06:00pm 12.6 10.0 6.0 64 3.4 W 9 11 5 6 - - 0.0
18/05:30pm 12.5 10.1 5.4 62 3.6 WSW 7 13 4 7 - - 0.0
18/05:00pm 12.8 11.0 3.5 53 4.6 ESE 2 13 1 7 - - 0.0
18/04:30pm 13.3 11.6 5.7 60 3.9 ESE 4 7 2 4 - - 0.0
18/04:00pm 13.8 11.3 4.7 54 4.6 NW 7 17 4 9 - - 0.0
18/03:30pm 12.5 10.4 5.9 64 3.4 N 6 9 3 5 - - 0.0
18/03:00pm 13.7 11.5 5.3 57 4.3 N 6 15 3 8 - - 0.0
18/02:30pm 14.0 12.0 7.3 64 3.6 NE 7 22 4 12 - - 0.0
18/02:00pm 13.4 10.7 5.6 59 4.0 N 9 20 5 11 - - 0.0
18/01:30pm 11.4 9.7 5.9 69 2.8 S 4 7 2 4 - - 0.0
18/01:00pm 10.5 8.3 5.1 69 2.7 SSW 6 13 3 7 - - 0.0

Other Formats:

Comma delimited format used in spreadsheet applications
http://www.bom.gov.au/fwo/IDV60801/IDV60801.94894.axf

JavaScript Object Notation format (JSON) in row-major order
http://www.bom.gov.au/fwo/IDV60801/IDV60801.94894.json